Temp: 11.4°C   Hum: 88%
  Wind: 0.0mph   Dir: W (276°)
  Rain: 0.0mm Rate: 0.0mm/hr
  Pressure: 1027.3mb

Historic data

Bath Spa Weather Station Historical Data
Daily Summary for May 16, 2022 Units:  Both    English   Metric
Daily Weekly Monthly Yearly Custom
  High: Low: Average:
Temperature: 65.4 °F /  18.6 °C 55.8 °F /  13.2 °C 60.2 °F /  15.7 °C
Dew Point: 57.9 °F /  14.4 °C 52.1 °F /  11.2 °C 55.6 °F /  13.1 °C
Humidity: 94% 74.4% 85%
Wind Speed: 12.8mph /  20.6km/h - 4.6mph /  7.4km/h
Wind Gust: 22mph /  35.4km/h - -
Wind- - SSW
Pressure: 30.06 in /  1017.8 hPa 29.81 in /  1009.4 hPa -
Precipitation: 0.07 in /  1.78 mm    
Historical Graphs
 
 
Tabular Data for May 16, 2022
Time Temperature Dew Point Pressure Wind Wind Speed Wind Gust Humidity Rainfall Rate (Hourly) solar
00:09 57.7 °F /  14.3 °C 55.4 °F /  13 °C 29.83in /  1010hPa ESE 3.1mph /  5km/h 9mph /  14.5km/h 92% 0.01in /  0.25mm 0 W/m2
00:14 57.7 °F /  14.3 °C 55.4 °F /  13 °C 29.84in /  1010.4hPa ESE 1.2mph /  1.9km/h 4mph /  6.4km/h 92% 0.01in /  0.25mm 0 W/m2
00:19 57.7 °F /  14.3 °C 55.4 °F /  13 °C 29.84in /  1010.4hPa ESE 0.8mph /  1.3km/h 3mph /  4.8km/h 92% 0.01in /  0.25mm 0 W/m2
00:24 57.7 °F /  14.3 °C 55.4 °F /  13 °C 29.83in /  1010hPa ESE 1.5mph /  2.4km/h 3mph /  4.8km/h 92% 0.01in /  0.25mm 0 W/m2
00:29 57.7 °F /  14.3 °C 55.4 °F /  13 °C 29.83in /  1010hPa ESE 1.2mph /  1.9km/h 4mph /  6.4km/h 92% 0.01in /  0.25mm 0 W/m2
00:34 57.6 °F /  14.2 °C 55.3 °F /  12.9 °C 29.83in /  1010hPa ESE 0.2mph /  0.3km/h 2mph /  3.2km/h 92% 0.01in /  0.25mm 0 W/m2
00:39 57.6 °F /  14.2 °C 55.2 °F /  12.9 °C 29.83in /  1010hPa ESE 1.4mph /  2.3km/h 3mph /  4.8km/h 92% 0.01in /  0.25mm 0 W/m2
00:44 57.6 °F /  14.2 °C 55.2 °F /  12.9 °C 29.83in /  1010hPa ESE 1.5mph /  2.4km/h 3mph /  4.8km/h 92% 0.01in /  0.25mm 0 W/m2
00:49 57.6 °F /  14.2 °C 55.2 °F /  12.9 °C 29.84in /  1010.4hPa ESE 0.2mph /  0.3km/h 3mph /  4.8km/h 92% 0.01in /  0.25mm 0 W/m2
00:54 57.4 °F /  14.1 °C 55 °F /  12.8 °C 29.84in /  1010.4hPa ESE 1.3mph /  2.1km/h 3mph /  4.8km/h 92% 0.01in /  0.25mm 0 W/m2
00:59 57.4 °F /  14.1 °C 55 °F /  12.8 °C 29.83in /  1010hPa Calm   3mph /  4.8km/h 92% 0.01in /  0.25mm 0 W/m2
01:04 57.4 °F /  14.1 °C 55 °F /  12.8 °C 29.83in /  1010hPa Calm     92% 0.00in /  0mm 0 W/m2
01:09 57.4 °F /  14.1 °C 55.3 °F /  12.9 °C 29.83in /  1010hPa Calm     92.8% 0.00in /  0mm 0 W/m2
01:14 57.2 °F /  14 °C 55.2 °F /  12.9 °C 29.83in /  1010hPa ESE 0.2mph /  0.3km/h 3mph /  4.8km/h 93% 0.00in /  0mm 0 W/m2
01:19 57.2 °F /  14 °C 55.2 °F /  12.9 °C 29.83in /  1010hPa ESE 0.9mph /  1.4km/h 3mph /  4.8km/h 93% 0.00in /  0mm 0 W/m2
01:24 57.4 °F /  14.1 °C 55.4 °F /  13 °C 29.83in /  1010hPa ESE 2.2mph /  3.5km/h 4mph /  6.4km/h 93% 0.01in /  0.25mm 0 W/m2
01:29 57.4 °F /  14.1 °C 55.4 °F /  13 °C 29.83in /  1010hPa SE 3.2mph /  5.1km/h 5mph /  8km/h 93% 0.01in /  0.25mm 0 W/m2
01:34 57.4 °F /  14.1 °C 55.4 °F /  13 °C 29.84in /  1010.4hPa SE 2.4mph /  3.9km/h 4mph /  6.4km/h 93% 0.02in /  0.51mm 0 W/m2
01:39 57.6 °F /  14.2 °C 55.6 °F /  13.1 °C 29.83in /  1010hPa SE 2.5mph /  4km/h 5mph /  8km/h 93% 0.02in /  0.51mm 0 W/m2
01:44 57.6 °F /  14.2 °C 55.6 °F /  13.1 °C 29.83in /  1010hPa SE 2.5mph /  4km/h 4mph /  6.4km/h 93% 0.02in /  0.51mm 0 W/m2
01:49 57.6 °F /  14.2 °C 55.6 °F /  13.1 °C 29.83in /  1010hPa ESE 1mph /  1.6km/h 4mph /  6.4km/h 93% 0.02in /  0.51mm 0 W/m2
01:54 57.6 °F /  14.2 °C 55.6 °F /  13.1 °C 29.83in /  1010hPa ESE 2.1mph /  3.4km/h 7mph /  11.3km/h 93% 0.02in /  0.51mm 0 W/m2
01:59 57.6 °F /  14.2 °C 55.7 °F /  13.2 °C 29.83in /  1010hPa ESE 5mph /  8km/h 10mph /  16.1km/h 93% 0.02in /  0.51mm 0 W/m2
02:04 57.7 °F /  14.3 °C 55.8 °F /  13.2 °C 29.83in /  1010hPa SE 3.9mph /  6.3km/h 8mph /  12.9km/h 93% 0.06in /  1.52mm 0 W/m2
02:09 57.9 °F /  14.4 °C 55.9 °F /  13.3 °C 29.83in /  1010hPa SE 6mph /  9.7km/h 11mph /  17.7km/h 93% 0.06in /  1.52mm 0 W/m2
02:14 57.9 °F /  14.4 °C 55.9 °F /  13.3 °C 29.83in /  1010hPa SE 5.4mph /  8.7km/h 9mph /  14.5km/h 93% 0.07in /  1.78mm 0 W/m2
02:19 57.9 °F /  14.4 °C 55.9 °F /  13.3 °C 29.82in /  1009.7hPa SE 4mph /  6.4km/h 11mph /  17.7km/h 93% 0.07in /  1.78mm 0 W/m2
02:24 57.9 °F /  14.4 °C 55.9 °F /  13.3 °C 29.83in /  1010hPa SE 2.3mph /  3.7km/h 11mph /  17.7km/h 93% 0.07in /  1.78mm 0 W/m2
02:29 57.9 °F /  14.4 °C 56 °F /  13.3 °C 29.83in /  1010hPa SSE 2mph /  3.2km/h 4mph /  6.4km/h 93.4% 0.06in /  1.52mm 0 W/m2
02:34 57.9 °F /  14.4 °C 56.1 °F /  13.4 °C 29.83in /  1010hPa ESE 1.7mph /  2.7km/h 6mph /  9.7km/h 94% 0.06in /  1.52mm 0 W/m2
02:39 57.9 °F /  14.4 °C 56.1 °F /  13.4 °C 29.83in /  1010hPa ESE 0.8mph /  1.3km/h 3mph /  4.8km/h 94% 0.06in /  1.52mm 0 W/m2
02:44 57.9 °F /  14.4 °C 56.1 °F /  13.4 °C 29.82in /  1009.7hPa ESE 1.4mph /  2.3km/h 4mph /  6.4km/h 94% 0.06in /  1.52mm 0 W/m2
02:49 57.9 °F /  14.4 °C 56.1 °F /  13.4 °C 29.82in /  1009.7hPa East 1.2mph /  1.9km/h 5mph /  8km/h 94% 0.06in /  1.52mm 0 W/m2
02:54 57.9 °F /  14.4 °C 56.1 °F /  13.4 °C 29.82in /  1009.7hPa Calm   2mph /  3.2km/h 94% 0.06in /  1.52mm 0 W/m2
02:59 57.9 °F /  14.4 °C 56.1 °F /  13.4 °C 29.82in /  1009.7hPa East 1.5mph /  2.4km/h 3mph /  4.8km/h 94% 0.05in /  1.27mm 0 W/m2
03:04 57.8 °F /  14.3 °C 56 °F /  13.3 °C 29.82in /  1009.7hPa East 2.2mph /  3.5km/h 4mph /  6.4km/h 94% 0.04in /  1.02mm 0 W/m2
03:09 57.7 °F /  14.3 °C 55.9 °F /  13.3 °C 29.82in /  1009.7hPa East 0.9mph /  1.4km/h 3mph /  4.8km/h 94% 0.01in /  0.25mm 0 W/m2
03:14 57.7 °F /  14.3 °C 55.9 °F /  13.3 °C 29.83in /  1010hPa Calm   3mph /  4.8km/h 94% 0.01in /  0.25mm 0 W/m2
03:19 57.7 °F /  14.3 °C 55.9 °F /  13.3 °C 29.82in /  1009.7hPa Calm     94% 0.00in /  0mm 0 W/m2
03:24 57.7 °F /  14.3 °C 55.9 °F /  13.3 °C 29.82in /  1009.7hPa East 0.6mph /  1km/h 3mph /  4.8km/h 94% 0.00in /  0mm 0 W/m2
03:29 57.7 °F /  14.3 °C 55.9 °F /  13.3 °C 29.82in /  1009.7hPa East 2.4mph /  3.9km/h 3mph /  4.8km/h 94% 0.00in /  0mm 0 W/m2
03:34 57.7 °F /  14.3 °C 55.9 °F /  13.3 °C 29.82in /  1009.7hPa East 0.5mph /  0.8km/h 3mph /  4.8km/h 94% 0.00in /  0mm 0 W/m2
03:39 57.6 °F /  14.2 °C 55.8 °F /  13.2 °C 29.82in /  1009.7hPa East 0.9mph /  1.4km/h 3mph /  4.8km/h 94% 0.00in /  0mm 0 W/m2
03:44 57.6 °F /  14.2 °C 55.8 °F /  13.2 °C 29.81in /  1009.4hPa East 2.3mph /  3.7km/h 5mph /  8km/h 94% 0.00in /  0mm 0 W/m2
03:49 57.7 °F /  14.3 °C 55.9 °F /  13.3 °C 29.82in /  1009.7hPa East 1.2mph /  1.9km/h 4mph /  6.4km/h 94% 0.00in /  0mm 0 W/m2
03:54 57.7 °F /  14.3 °C 55.9 °F /  13.3 °C 29.82in /  1009.7hPa East 1.2mph /  1.9km/h 5mph /  8km/h 94% 0.00in /  0mm 0 W/m2
03:59 57.7 °F /  14.3 °C 55.9 °F /  13.3 °C 29.82in /  1009.7hPa East 1.2mph /  1.9km/h 4mph /  6.4km/h 94% 0.00in /  0mm 0 W/m2
04:04 57.7 °F /  14.3 °C 55.9 °F /  13.3 °C 29.82in /  1009.7hPa ESE 2.7mph /  4.3km/h 6mph /  9.7km/h 94% 0.00in /  0mm 0 W/m2
04:09 57.9 °F /  14.4 °C 56.1 °F /  13.4 °C 29.82in /  1009.7hPa SE 2.3mph /  3.7km/h 6mph /  9.7km/h 94% 0.00in /  0mm 0 W/m2
04:14 57.9 °F /  14.4 °C 56.1 °F /  13.4 °C 29.82in /  1009.7hPa SE 2mph /  3.2km/h 5mph /  8km/h 94% 0.00in /  0mm 0 W/m2
04:19 57.9 °F /  14.4 °C 56.1 °F /  13.4 °C 29.83in /  1010hPa SE 1.5mph /  2.4km/h 3mph /  4.8km/h 94% 0.00in /  0mm 0 W/m2
04:24 57.9 °F /  14.4 °C 56.1 °F /  13.4 °C 29.83in /  1010hPa SE 2mph /  3.2km/h 6mph /  9.7km/h 94% 0.00in /  0mm 0 W/m2
04:29 58.1 °F /  14.5 °C 56.3 °F /  13.5 °C 29.83in /  1010hPa SSE 1.8mph /  2.9km/h 6mph /  9.7km/h 94% 0.00in /  0mm 0 W/m2
04:34 58.2 °F /  14.6 °C 56.4 °F /  13.6 °C 29.83in /  1010hPa SW 5.8mph /  9.3km/h 9mph /  14.5km/h 94% 0.00in /  0mm 0 W/m2
04:39 58.3 °F /  14.6 °C 56.5 °F /  13.6 °C 29.83in /  1010hPa WSW 4mph /  6.4km/h 9mph /  14.5km/h 94% 0.00in /  0mm 0 W/m2
04:44 58.3 °F /  14.6 °C 56.5 °F /  13.6 °C 29.83in /  1010hPa SSW 1.5mph /  2.4km/h 7mph /  11.3km/h 94% 0.00in /  0mm 0 W/m2
04:49 58.3 °F /  14.6 °C 56.5 °F /  13.6 °C 29.82in /  1009.7hPa SSW 0.5mph /  0.8km/h 2mph /  3.2km/h 94% 0.00in /  0mm 0 W/m2
04:54 58.1 °F /  14.5 °C 56.3 °F /  13.5 °C 29.83in /  1010hPa SSW 1.7mph /  2.7km/h 7mph /  11.3km/h 94% 0.00in /  0mm 0 W/m2
04:59 58.1 °F /  14.5 °C 56.3 °F /  13.5 °C 29.83in /  1010hPa SSW 1.3mph /  2.1km/h 3mph /  4.8km/h 94% 0.00in /  0mm 0 W/m2
05:04 57.9 °F /  14.4 °C 56.1 °F /  13.4 °C 29.83in /  1010hPa SSW 0.7mph /  1.1km/h 3mph /  4.8km/h 94% 0.00in /  0mm 0 W/m2
05:09 57.9 °F /  14.4 °C 56.1 °F /  13.4 °C 29.83in /  1010hPa SW 2.5mph /  4km/h 6mph /  9.7km/h 94% 0.00in /  0mm 0 W/m2
05:14 57.7 °F /  14.3 °C 55.9 °F /  13.3 °C 29.83in /  1010hPa SW 2.8mph /  4.5km/h 7mph /  11.3km/h 94% 0.00in /  0mm 0 W/m2
05:19 57.7 °F /  14.3 °C 55.9 °F /  13.3 °C 29.83in /  1010hPa SSW 2mph /  3.2km/h 8mph /  12.9km/h 94% 0.00in /  0mm 0 W/m2
05:24 57.7 °F /  14.3 °C 55.9 °F /  13.3 °C 29.83in /  1010hPa SSW 2.9mph /  4.7km/h 6mph /  9.7km/h 94% 0.00in /  0mm 0 W/m2
05:29 57.6 °F /  14.2 °C 55.8 °F /  13.2 °C 29.84in /  1010.4hPa SSW 3mph /  4.8km/h 7mph /  11.3km/h 94% 0.00in /  0mm 5 W/m2
05:34 57.6 °F /  14.2 °C 55.7 °F /  13.2 °C 29.84in /  1010.4hPa SW 3mph /  4.8km/h 9mph /  14.5km/h 93.4% 0.00in /  0mm 5 W/m2
05:39 57.6 °F /  14.2 °C 55.6 °F /  13.1 °C 29.84in /  1010.4hPa SW 3.7mph /  6km/h 9mph /  14.5km/h 93% 0.00in /  0mm 11 W/m2
05:44 57.6 °F /  14.2 °C 55.6 °F /  13.1 °C 29.85in /  1010.7hPa SSW 2.2mph /  3.5km/h 10mph /  16.1km/h 93% 0.00in /  0mm 12 W/m2
05:49 57.6 °F /  14.2 °C 55.6 °F /  13.1 °C 29.85in /  1010.7hPa SSW 2.8mph /  4.5km/h 7mph /  11.3km/h 93% 0.00in /  0mm 11 W/m2
05:54 57.6 °F /  14.2 °C 55.6 °F /  13.1 °C 29.85in /  1010.7hPa SSW 3.7mph /  6km/h 9mph /  14.5km/h 93% 0.00in /  0mm 16 W/m2
05:59 57.6 °F /  14.2 °C 55.6 °F /  13.1 °C 29.85in /  1010.7hPa SSW 3.6mph /  5.8km/h 7mph /  11.3km/h 93% 0.00in /  0mm 33 W/m2
06:04 57.6 °F /  14.2 °C 55.6 °F /  13.1 °C 29.86in /  1011.1hPa SW 3.3mph /  5.3km/h 8mph /  12.9km/h 93% 0.00in /  0mm 35 W/m2
06:09 57.6 °F /  14.2 °C 55.6 °F /  13.1 °C 29.86in /  1011.1hPa SW 3.2mph /  5.1km/h 8mph /  12.9km/h 93% 0.00in /  0mm 40 W/m2
06:14 57.6 °F /  14.2 °C 55.6 °F /  13.1 °C 29.86in /  1011.1hPa SSW 2.4mph /  3.9km/h 6mph /  9.7km/h 93% 0.00in /  0mm 47 W/m2
06:19 57.5 °F /  14.2 °C 55.5 °F /  13.1 °C 29.85in /  1010.7hPa SSW 0.7mph /  1.1km/h 4mph /  6.4km/h 93% 0.00in /  0mm 65 W/m2
06:24 57.6 °F /  14.2 °C 55.6 °F /  13.1 °C 29.86in /  1011.1hPa SSW 2.8mph /  4.5km/h 6mph /  9.7km/h 93% 0.00in /  0mm 74 W/m2
06:29 57.6 °F /  14.2 °C 55.6 °F /  13.1 °C 29.86in /  1011.1hPa SW 2.4mph /  3.9km/h 6mph /  9.7km/h 93% 0.00in /  0mm 70 W/m2
06:34 57.7 °F /  14.3 °C 55.8 °F /  13.2 °C 29.87in /  1011.4hPa SW 3.5mph /  5.6km/h 6mph /  9.7km/h 93% 0.00in /  0mm 77 W/m2
06:39 57.7 °F /  14.3 °C 55.8 °F /  13.2 °C 29.87in /  1011.4hPa SW 3.2mph /  5.1km/h 6mph /  9.7km/h 93% 0.00in /  0mm 77 W/m2
06:44 57.7 °F /  14.3 °C 55.8 °F /  13.2 °C 29.88in /  1011.7hPa SW 3.3mph /  5.3km/h 7mph /  11.3km/h 93% 0.00in /  0mm 69 W/m2
06:49 57.7 °F /  14.3 °C 55.7 °F /  13.2 °C 29.88in /  1011.7hPa SW 5.5mph /  8.9km/h 11mph /  17.7km/h 93% 0.00in /  0mm 58 W/m2
06:54 57.6 °F /  14.2 °C 55.6 °F /  13.1 °C 29.88in /  1011.7hPa SW 5.3mph /  8.5km/h 10mph /  16.1km/h 93% 0.00in /  0mm 46 W/m2
06:59 57.6 °F /  14.2 °C 55.6 °F /  13.1 °C 29.88in /  1011.7hPa SW 4.1mph /  6.6km/h 7mph /  11.3km/h 93% 0.00in /  0mm 35 W/m2
07:04 57.6 °F /  14.2 °C 55.5 °F /  13.1 °C 29.89in /  1012.1hPa SW 4.1mph /  6.6km/h 7mph /  11.3km/h 92.8% 0.00in /  0mm 12 W/m2
07:09 57.6 °F /  14.2 °C 55.3 °F /  12.9 °C 29.89in /  1012.1hPa SW 4.6mph /  7.4km/h 9mph /  14.5km/h 92.4% 0.00in /  0mm 11 W/m2
07:14 57.4 °F /  14.1 °C 55 °F /  12.8 °C 29.89in /  1012.1hPa SW 6.2mph /  10km/h 14mph /  22.5km/h 92% 0.00in /  0mm 23 W/m2
07:19 57.4 °F /  14.1 °C 55 °F /  12.8 °C 29.89in /  1012.1hPa SW 4.1mph /  6.6km/h 9mph /  14.5km/h 92% 0.00in /  0mm 90 W/m2
07:34 57.6 °F /  14.2 °C 55.2 °F /  12.9 °C 29.89in /  1012.1hPa SW 8.2mph /  13.2km/h 9mph /  14.5km/h 92% 0.00in /  0mm 156 W/m2
07:39 57.6 °F /  14.2 °C 55.2 °F /  12.9 °C 29.90in /  1012.4hPa SW 5.5mph /  8.9km/h 11mph /  17.7km/h 92% 0.00in /  0mm 141 W/m2
07:44 57.6 °F /  14.2 °C 55.3 °F /  12.9 °C 29.90in /  1012.4hPa SW 5.6mph /  9km/h 11mph /  17.7km/h 92% 0.00in /  0mm 190 W/m2
07:49 57.8 °F /  14.3 °C 55.5 °F /  13.1 °C 29.90in /  1012.4hPa WSW 5.7mph /  9.2km/h 11mph /  17.7km/h 92% 0.00in /  0mm 195 W/m2
07:54 58.3 °F /  14.6 °C 55.8 °F /  13.2 °C 29.90in /  1012.4hPa SW 5.6mph /  9km/h 10mph /  16.1km/h 91.8% 0.00in /  0mm 218 W/m2
07:59 58.5 °F /  14.7 °C 55.8 °F /  13.2 °C 29.90in /  1012.4hPa SW 5.8mph /  9.3km/h 13mph /  20.9km/h 91% 0.00in /  0mm 190 W/m2
08:04 58.8 °F /  14.9 °C 56.1 °F /  13.4 °C 29.90in /  1012.4hPa SW 5.8mph /  9.3km/h 13mph /  20.9km/h 91% 0.00in /  0mm 171 W/m2
08:09 58.9 °F /  14.9 °C 56 °F /  13.3 °C 29.90in /  1012.4hPa WSW 3.6mph /  5.8km/h 10mph /  16.1km/h 90.2% 0.00in /  0mm 200 W/m2
08:14 59 °F /  15 °C 56.1 °F /  13.4 °C 29.91in /  1012.8hPa SW 5.1mph /  8.2km/h 12mph /  19.3km/h 90% 0.00in /  0mm 158 W/m2
08:19 59 °F /  15 °C 56.1 °F /  13.4 °C 29.91in /  1012.8hPa SW 4.6mph /  7.4km/h 11mph /  17.7km/h 90% 0.00in /  0mm 200 W/m2
08:24 58.8 °F /  14.9 °C 55.9 °F /  13.3 °C 29.91in /  1012.8hPa SW 5.9mph /  9.5km/h 13mph /  20.9km/h 90% 0.00in /  0mm 200 W/m2
08:29 58.8 °F /  14.9 °C 55.9 °F /  13.3 °C 29.91in /  1012.8hPa WSW 5.4mph /  8.7km/h 10mph /  16.1km/h 90% 0.00in /  0mm 223 W/m2
08:34 58.8 °F /  14.9 °C 55.9 °F /  13.3 °C 29.91in /  1012.8hPa SW 5.6mph /  9km/h 11mph /  17.7km/h 89.8% 0.00in /  0mm 237 W/m2
08:39 59.2 °F /  15.1 °C 55.9 °F /  13.3 °C 29.91in /  1012.8hPa West 4.6mph /  7.4km/h 11mph /  17.7km/h 89% 0.00in /  0mm 336 W/m2
08:44 59.4 °F /  15.2 °C 56.1 °F /  13.4 °C 29.91in /  1012.8hPa SW 4.9mph /  7.9km/h 12mph /  19.3km/h 89% 0.00in /  0mm 434 W/m2
08:49 59.7 °F /  15.4 °C 56.5 °F /  13.6 °C 29.92in /  1013.1hPa SW 6.2mph /  10km/h 12mph /  19.3km/h 89% 0.00in /  0mm 503 W/m2
08:54 59.7 °F /  15.4 °C 56.1 °F /  13.4 °C 29.92in /  1013.1hPa SW 7.6mph /  12.2km/h 13mph /  20.9km/h 88% 0.00in /  0mm 322 W/m2
08:59 59.8 °F /  15.4 °C 56.2 °F /  13.4 °C 29.93in /  1013.4hPa SW 7.4mph /  11.9km/h 15mph /  24.1km/h 88% 0.00in /  0mm 243 W/m2
09:04 59.7 °F /  15.4 °C 55.9 °F /  13.3 °C 29.92in /  1013.1hPa SW 7.6mph /  12.2km/h 13mph /  20.9km/h 87.2% 0.00in /  0mm 267 W/m2
09:09 60.2 °F /  15.7 °C 56.3 °F /  13.5 °C 29.92in /  1013.1hPa WSW 5.6mph /  9km/h 14mph /  22.5km/h 87% 0.00in /  0mm 441 W/m2
09:14 60.7 °F /  15.9 °C 56.7 °F /  13.7 °C 29.92in /  1013.1hPa WSW 4.5mph /  7.2km/h 9mph /  14.5km/h 87% 0.00in /  0mm 492 W/m2
09:19 61.1 °F /  16.2 °C 56.8 °F /  13.8 °C 29.92in /  1013.1hPa WSW 4.4mph /  7.1km/h 10mph /  16.1km/h 85.6% 0.00in /  0mm 612 W/m2
09:24 61.3 °F /  16.3 °C 56.8 °F /  13.8 °C 29.92in /  1013.1hPa WSW 5.1mph /  8.2km/h 14mph /  22.5km/h 85% 0.00in /  0mm 309 W/m2
09:29 61 °F /  16.1 °C 56.1 °F /  13.4 °C 29.92in /  1013.1hPa SW 9.2mph /  14.8km/h 14mph /  22.5km/h 84% 0.00in /  0mm 301 W/m2
09:34 61.1 °F /  16.2 °C 56.2 °F /  13.4 °C 29.92in /  1013.1hPa SW 5.1mph /  8.2km/h 14mph /  22.5km/h 84% 0.00in /  0mm 316 W/m2
09:39 61.4 °F /  16.3 °C 56.6 °F /  13.7 °C 29.93in /  1013.4hPa SSW 4.5mph /  7.2km/h 13mph /  20.9km/h 84% 0.00in /  0mm 325 W/m2
09:44 62 °F /  16.7 °C 56.9 °F /  13.8 °C 29.93in /  1013.4hPa WSW 5.2mph /  8.4km/h 11mph /  17.7km/h 83.4% 0.00in /  0mm 301 W/m2
09:49 62.4 °F /  16.9 °C 57 °F /  13.9 °C 29.93in /  1013.4hPa SSW 6.6mph /  10.6km/h 15mph /  24.1km/h 82.6% 0.00in /  0mm 717 W/m2
09:54 62.4 °F /  16.9 °C 56.6 °F /  13.7 °C 29.93in /  1013.4hPa SW 9.4mph /  15.1km/h 14mph /  22.5km/h 81.4% 0.00in /  0mm 717 W/m2
09:59 62.3 °F /  16.8 °C 56.7 °F /  13.7 °C 29.93in /  1013.4hPa WSW 7.9mph /  12.7km/h 14mph /  22.5km/h 82% 0.00in /  0mm 309 W/m2
10:04 62.6 °F /  17 °C 57.1 °F /  13.9 °C 29.93in /  1013.4hPa SW 4.5mph /  7.2km/h 11mph /  17.7km/h 82.2% 0.00in /  0mm 464 W/m2
10:09 62.9 °F /  17.2 °C 57.3 °F /  14.1 °C 29.93in /  1013.4hPa SW 6.6mph /  10.6km/h 12mph /  19.3km/h 82% 0.00in /  0mm 376 W/m2
10:14 62.7 °F /  17.1 °C 57 °F /  13.9 °C 29.94in /  1013.8hPa SW 5.2mph /  8.4km/h 10mph /  16.1km/h 81.6% 0.00in /  0mm 499 W/m2
10:19 63 °F /  17.2 °C 57.4 °F /  14.1 °C 29.94in /  1013.8hPa SW 5.6mph /  9km/h 12mph /  19.3km/h 82% 0.00in /  0mm 568 W/m2
10:24 63.1 °F /  17.3 °C 57.1 °F /  13.9 °C 29.94in /  1013.8hPa SW 6.7mph /  10.8km/h 13mph /  20.9km/h 81% 0.00in /  0mm 810 W/m2
10:29 63.1 °F /  17.3 °C 57.2 °F /  14 °C 29.95in /  1014.1hPa SW 5.8mph /  9.3km/h 10mph /  16.1km/h 81% 0.00in /  0mm 232 W/m2
10:34 63 °F /  17.2 °C 57 °F /  13.9 °C 29.95in /  1014.1hPa WSW 6mph /  9.7km/h 12mph /  19.3km/h 81% 0.00in /  0mm 559 W/m2
10:39 63.2 °F /  17.3 °C 57.4 °F /  14.1 °C 29.95in /  1014.1hPa SW 6.6mph /  10.6km/h 12mph /  19.3km/h 81.2% 0.00in /  0mm 793 W/m2
10:44 63.7 °F /  17.6 °C 57.5 °F /  14.2 °C 29.95in /  1014.1hPa SW 6.6mph /  10.6km/h 13mph /  20.9km/h 80.2% 0.00in /  0mm 842 W/m2
10:49 63.6 °F /  17.6 °C 57.3 °F /  14.1 °C 29.95in /  1014.1hPa WSW 7mph /  11.3km/h 11mph /  17.7km/h 80% 0.00in /  0mm 795 W/m2
10:54 63.7 °F /  17.6 °C 57 °F /  13.9 °C 29.96in /  1014.4hPa WSW 8mph /  12.9km/h 14mph /  22.5km/h 78.8% 0.00in /  0mm 315 W/m2
10:59 64.2 °F /  17.9 °C 57.2 °F /  14 °C 29.96in /  1014.4hPa SW 4.5mph /  7.2km/h 11mph /  17.7km/h 78.2% 0.00in /  0mm 905 W/m2
11:04 64.1 °F /  17.8 °C 56.8 °F /  13.8 °C 29.95in /  1014.1hPa SW 5.6mph /  9km/h 12mph /  19.3km/h 77.2% 0.00in /  0mm 462 W/m2
11:09 64.5 °F /  18.1 °C 57 °F /  13.9 °C 29.95in /  1014.1hPa SW 6.1mph /  9.8km/h 10mph /  16.1km/h 76.8% 0.00in /  0mm 1007 W/m2
11:14 65 °F /  18.3 °C 57.3 °F /  14.1 °C 29.95in /  1014.1hPa SSW 4.7mph /  7.6km/h 9mph /  14.5km/h 76% 0.00in /  0mm 865 W/m2
11:19 65.4 °F /  18.6 °C 57.2 °F /  14 °C 29.96in /  1014.4hPa SSW 6.2mph /  10km/h 12mph /  19.3km/h 74.8% 0.00in /  0mm 865 W/m2
11:24 65.1 °F /  18.4 °C 57.2 °F /  14 °C 29.96in /  1014.4hPa SW 8mph /  12.9km/h 12mph /  19.3km/h 75.4% 0.00in /  0mm 816 W/m2
11:29 65.1 °F /  18.4 °C 57.1 °F /  13.9 °C 29.96in /  1014.4hPa SW 6.8mph /  10.9km/h 15mph /  24.1km/h 75.2% 0.00in /  0mm 362 W/m2
11:34 65 °F /  18.3 °C 56.7 °F /  13.7 °C 29.96in /  1014.4hPa SW 6.9mph /  11.1km/h 15mph /  24.1km/h 74.4% 0.00in /  0mm 360 W/m2
11:39 64.8 °F /  18.2 °C 56.6 °F /  13.7 °C 29.96in /  1014.4hPa WSW 7.4mph /  11.9km/h 13mph /  20.9km/h 74.8% 0.00in /  0mm 471 W/m2
11:44 65.1 °F /  18.4 °C 56.9 °F /  13.8 °C 29.96in /  1014.4hPa SW 6.8mph /  10.9km/h 16mph /  25.7km/h 74.8% 0.00in /  0mm 454 W/m2
11:49 65.2 °F /  18.4 °C 57.1 °F /  13.9 °C 29.96in /  1014.4hPa SW 4.7mph /  7.6km/h 13mph /  20.9km/h 74.8% 0.00in /  0mm 279 W/m2
11:54 65 °F /  18.3 °C 57.1 °F /  13.9 °C 29.97in /  1014.8hPa SSW 9.2mph /  14.8km/h 16mph /  25.7km/h 75.6% 0.00in /  0mm 345 W/m2
11:59 64.6 °F /  18.1 °C 57.5 °F /  14.2 °C 29.97in /  1014.8hPa South 7.4mph /  11.9km/h 18mph /  29km/h 78% 0.00in /  0mm 1234 W/m2
12:04 65 °F /  18.3 °C 57.9 °F /  14.4 °C 29.97in /  1014.8hPa South 6.5mph /  10.5km/h 18mph /  29km/h 77.8% 0.00in /  0mm 1234 W/m2
12:09 65.3 °F /  18.5 °C 57.9 °F /  14.4 °C 29.97in /  1014.8hPa SSW 8.2mph /  13.2km/h 15mph /  24.1km/h 77.2% 0.00in /  0mm 1102 W/m2
12:14 64.9 °F /  18.3 °C 57.6 °F /  14.2 °C 29.97in /  1014.8hPa WSW 7.4mph /  11.9km/h 17mph /  27.4km/h 77% 0.00in /  0mm 487 W/m2
12:19 65 °F /  18.3 °C 57.6 °F /  14.2 °C 29.97in /  1014.8hPa SSW 6.6mph /  10.6km/h 13mph /  20.9km/h 77% 0.00in /  0mm 515 W/m2
12:24 64.3 °F /  17.9 °C 57.3 °F /  14.1 °C 29.98in /  1015.1hPa SW 7.4mph /  11.9km/h 19mph /  30.6km/h 78% 0.00in /  0mm 464 W/m2
12:29 63.8 °F /  17.7 °C 57 °F /  13.9 °C 29.98in /  1015.1hPa SW 8mph /  12.9km/h 16mph /  25.7km/h 78.6% 0.00in /  0mm 399 W/m2
12:34 63.7 °F /  17.6 °C 57.2 °F /  14 °C 29.98in /  1015.1hPa SW 6.4mph /  10.3km/h 15mph /  24.1km/h 79.6% 0.00in /  0mm 315 W/m2
12:39 63.8 °F /  17.7 °C 57.5 °F /  14.2 °C 29.98in /  1015.1hPa SSW 6.6mph /  10.6km/h 14mph /  22.5km/h 80% 0.00in /  0mm 461 W/m2
12:44 64.1 °F /  17.8 °C 57.6 °F /  14.2 °C 29.98in /  1015.1hPa SW 7.8mph /  12.6km/h 15mph /  24.1km/h 79.2% 0.00in /  0mm 529 W/m2
12:49 64.2 °F /  17.9 °C 57.6 °F /  14.2 °C 29.98in /  1015.1hPa SSW 12.6mph /  20.3km/h 17mph /  27.4km/h 79% 0.00in /  0mm 476 W/m2
12:54 63.9 °F /  17.7 °C 57.2 °F /  14 °C 29.98in /  1015.1hPa South 9.4mph /  15.1km/h 20mph /  32.2km/h 79% 0.00in /  0mm 552 W/m2
12:59 63.6 °F /  17.6 °C 57.1 °F /  13.9 °C 29.98in /  1015.1hPa SSW 11.6mph /  18.7km/h 18mph /  29km/h 79.4% 0.00in /  0mm 288 W/m2
13:04 63.6 °F /  17.6 °C 56.9 °F /  13.8 °C 29.98in /  1015.1hPa SSW 7.8mph /  12.6km/h 21mph /  33.8km/h 79% 0.00in /  0mm 339 W/m2
13:09 63.7 °F /  17.6 °C 57 °F /  13.9 °C 29.98in /  1015.1hPa SW 9.4mph /  15.1km/h 21mph /  33.8km/h 78.8% 0.00in /  0mm 336 W/m2
13:14 63.7 °F /  17.6 °C 56.7 °F /  13.7 °C 29.99in /  1015.5hPa SSW 8.6mph /  13.8km/h 21mph /  33.8km/h 78% 0.00in /  0mm 302 W/m2
13:19 63.3 °F /  17.4 °C 56.3 °F /  13.5 °C 29.98in /  1015.1hPa SW 9mph /  14.5km/h 21mph /  33.8km/h 78% 0.00in /  0mm 188 W/m2
13:24 62.6 °F /  17 °C 55.9 °F /  13.3 °C 29.99in /  1015.5hPa SW 9.7mph /  15.6km/h 22mph /  35.4km/h 78.8% 0.00in /  0mm 225 W/m2
13:29 62.3 °F /  16.8 °C 56.2 °F /  13.4 °C 29.98in /  1015.1hPa SSW 8.5mph /  13.7km/h 18mph /  29km/h 80.3% 0.00in /  0mm 295 W/m2
13:34 62.4 °F /  16.9 °C 56 °F /  13.3 °C 29.98in /  1015.1hPa SW 9.4mph /  15.1km/h 19mph /  30.6km/h 79.6% 0.00in /  0mm 283 W/m2
13:39 62.4 °F /  16.9 °C 55.4 °F /  13 °C 29.98in /  1015.1hPa SW 9.2mph /  14.8km/h 20mph /  32.2km/h 77.8% 0.00in /  0mm 629 W/m2
13:44 62.8 °F /  17.1 °C 55.8 °F /  13.2 °C 29.98in /  1015.1hPa South 9.6mph /  15.4km/h 15mph /  24.1km/h 78% 0.00in /  0mm 431 W/m2
13:49 63.6 °F /  17.6 °C 56.2 °F /  13.4 °C 29.98in /  1015.1hPa South 7.6mph /  12.2km/h 15mph /  24.1km/h 76.8% 0.00in /  0mm 1100 W/m2
13:54 64.6 °F /  18.1 °C 56.5 °F /  13.6 °C 29.98in /  1015.1hPa SSW 7.4mph /  11.9km/h 17mph /  27.4km/h 75% 0.00in /  0mm 1100 W/m2
13:59 64.4 °F /  18 °C 56.2 °F /  13.4 °C 29.98in /  1015.1hPa SSW 7.1mph /  11.4km/h 17mph /  27.4km/h 74.8% 0.00in /  0mm 322 W/m2
14:04 63.9 °F /  17.7 °C 55.8 °F /  13.2 °C 29.98in /  1015.1hPa South 7.4mph /  11.9km/h 14mph /  22.5km/h 74.8% 0.00in /  0mm 330 W/m2
14:09 63.6 °F /  17.6 °C 55.5 °F /  13.1 °C 29.98in /  1015.1hPa South 7mph /  11.3km/h 13mph /  20.9km/h 75% 0.00in /  0mm 279 W/m2
14:14 63.5 °F /  17.5 °C 55.4 °F /  13 °C 29.98in /  1015.1hPa SSW 7.2mph /  11.6km/h 18mph /  29km/h 75% 0.00in /  0mm 221 W/m2
14:19 62.9 °F /  17.2 °C 55 °F /  12.8 °C 29.98in /  1015.1hPa South 9.4mph /  15.1km/h 18mph /  29km/h 75.8% 0.00in /  0mm 197 W/m2
14:24 62.4 °F /  16.9 °C 55.1 °F /  12.8 °C 29.98in /  1015.1hPa SW 7.5mph /  12.1km/h 18mph /  29km/h 77.2% 0.00in /  0mm 362 W/m2
14:29 62.3 °F /  16.8 °C 55.4 °F /  13 °C 29.98in /  1015.1hPa SSW 6.2mph /  10km/h 17mph /  27.4km/h 78.4% 0.00in /  0mm 461 W/m2
14:34 62.8 °F /  17.1 °C 55.9 °F /  13.3 °C 29.98in /  1015.1hPa SSW 7.3mph /  11.7km/h 15mph /  24.1km/h 78.2% 0.00in /  0mm 457 W/m2
14:39 62.4 °F /  16.9 °C 55.6 °F /  13.1 °C 29.98in /  1015.1hPa SSW 8.4mph /  13.5km/h 15mph /  24.1km/h 78.4% 0.00in /  0mm 302 W/m2
14:44 62.2 °F /  16.8 °C 55.6 °F /  13.1 °C 29.98in /  1015.1hPa SSW 6.7mph /  10.8km/h 11mph /  17.7km/h 79.4% 0.00in /  0mm 207 W/m2
14:49 61.7 °F /  16.5 °C 56.1 °F /  13.4 °C 29.98in /  1015.1hPa South 5.4mph /  8.7km/h 17mph /  27.4km/h 82% 0.00in /  0mm 346 W/m2
14:54 61.1 °F /  16.2 °C 55.9 °F /  13.3 °C 29.98in /  1015.1hPa SW 8mph /  12.9km/h 13mph /  20.9km/h 83.3% 0.00in /  0mm 357 W/m2
14:59 60.8 °F /  16 °C 55.9 °F /  13.3 °C 29.98in /  1015.1hPa South 6.5mph /  10.5km/h 16mph /  25.7km/h 84% 0.00in /  0mm 345 W/m2
15:04 61.1 °F /  16.2 °C 56.2 °F /  13.4 °C 29.98in /  1015.1hPa SW 7.6mph /  12.2km/h 16mph /  25.7km/h 84% 0.00in /  0mm 350 W/m2
15:09 61.2 °F /  16.2 °C 56.2 °F /  13.4 °C 29.98in /  1015.1hPa SSW 7.1mph /  11.4km/h 16mph /  25.7km/h 83.6% 0.00in /  0mm 392 W/m2
15:14 61.3 °F /  16.3 °C 56.1 °F /  13.4 °C 29.98in /  1015.1hPa SSW 7.9mph /  12.7km/h 17mph /  27.4km/h 83% 0.00in /  0mm 265 W/m2
15:19 61 °F /  16.1 °C 55.9 °F /  13.3 °C 29.98in /  1015.1hPa SSW 7.8mph /  12.6km/h 18mph /  29km/h 83.4% 0.00in /  0mm 260 W/m2
15:24 61 °F /  16.1 °C 56.1 °F /  13.4 °C 29.98in /  1015.1hPa SW 7.4mph /  11.9km/h 17mph /  27.4km/h 84% 0.00in /  0mm 251 W/m2
15:29 60.8 °F /  16 °C 55.6 °F /  13.1 °C 29.98in /  1015.1hPa SSW 12.8mph /  20.6km/h 21mph /  33.8km/h 83% 0.00in /  0mm 285 W/m2
15:34 60.4 °F /  15.8 °C 55.3 °F /  12.9 °C 29.98in /  1015.1hPa SW 9.3mph /  15km/h 17mph /  27.4km/h 83.2% 0.00in /  0mm 260 W/m2
15:39 60.5 °F /  15.8 °C 55.7 °F /  13.2 °C 29.98in /  1015.1hPa SW 9.8mph /  15.8km/h 18mph /  29km/h 84% 0.00in /  0mm 230 W/m2
15:44 60.4 °F /  15.8 °C 55.5 °F /  13.1 °C 29.98in /  1015.1hPa SW 7.2mph /  11.6km/h 21mph /  33.8km/h 84% 0.00in /  0mm 214 W/m2
15:49 60.4 °F /  15.8 °C 55.6 °F /  13.1 °C 29.98in /  1015.1hPa SW 7.7mph /  12.4km/h 15mph /  24.1km/h 84% 0.00in /  0mm 227 W/m2
15:54 60.4 °F /  15.8 °C 55.6 °F /  13.1 °C 29.98in /  1015.1hPa SSW 6.3mph /  10.1km/h 15mph /  24.1km/h 84% 0.00in /  0mm 410 W/m2
15:59 60.8 °F /  16 °C 56 °F /  13.3 °C 29.98in /  1015.1hPa SSW 8.8mph /  14.2km/h 14mph /  22.5km/h 84% 0.00in /  0mm 577 W/m2
16:04 61.4 °F /  16.3 °C 56.2 °F /  13.4 °C 29.98in /  1015.1hPa SSW 8.6mph /  13.8km/h 18mph /  29km/h 83% 0.00in /  0mm 816 W/m2
16:09 62 °F /  16.7 °C 56.4 °F /  13.6 °C 29.98in /  1015.1hPa SSW 8.8mph /  14.2km/h 16mph /  25.7km/h 82% 0.00in /  0mm 791 W/m2
16:14 61.8 °F /  16.6 °C 56 °F /  13.3 °C 29.98in /  1015.1hPa SW 5.9mph /  9.5km/h 15mph /  24.1km/h 81.4% 0.00in /  0mm 299 W/m2
16:19 61.9 °F /  16.6 °C 56 °F /  13.3 °C 29.98in /  1015.1hPa SSW 5.6mph /  9km/h 12mph /  19.3km/h 81.2% 0.00in /  0mm 209 W/m2
16:24 62.1 °F /  16.7 °C 56.2 °F /  13.4 °C 29.98in /  1015.1hPa SW 6.9mph /  11.1km/h 13mph /  20.9km/h 81.4% 0.00in /  0mm 889 W/m2
16:29 62.4 °F /  16.9 °C 56.4 °F /  13.6 °C 29.98in /  1015.1hPa SSW 7.8mph /  12.6km/h 16mph /  25.7km/h 80.8% 0.00in /  0mm 789 W/m2
16:34 62.4 °F /  16.9 °C 56.2 °F /  13.4 °C 29.98in /  1015.1hPa SW 6.8mph /  10.9km/h 14mph /  22.5km/h 80.4% 0.00in /  0mm 575 W/m2
16:39 62.9 °F /  17.2 °C 56.6 °F /  13.7 °C 29.98in /  1015.1hPa SSW 7mph /  11.3km/h 15mph /  24.1km/h 80.2% 0.00in /  0mm 863 W/m2
16:43 63.4 °F /  17.4 °C 57 °F /  13.9 °C 29.98in /  1015.1hPa SSW 5.9mph /  9.5km/h 12mph /  19.3km/h 79.8% 0.00in /  0mm 638 W/m2
16:49 63.9 °F /  17.7 °C 57.2 °F /  14 °C 29.98in /  1015.1hPa South 8mph /  12.9km/h 15mph /  24.1km/h 78.8% 0.00in /  0mm 652 W/m2
16:54 64.1 °F /  17.8 °C 57 °F /  13.9 °C 29.98in /  1015.1hPa SSW 8.2mph /  13.2km/h 16mph /  25.7km/h 77.6% 0.00in /  0mm 636 W/m2
16:59 63.9 °F /  17.7 °C 56.7 °F /  13.7 °C 29.98in /  1015.1hPa WSW 7.1mph /  11.4km/h 10mph /  16.1km/h 77.5% 0.00in /  0mm 327 W/m2
17:04 63.9 °F /  17.7 °C 56.8 °F /  13.8 °C 29.98in /  1015.1hPa SW 4.3mph /  6.9km/h 10mph /  16.1km/h 77.8% 0.00in /  0mm 350 W/m2
17:09 63.7 °F /  17.6 °C 56.5 °F /  13.6 °C 29.98in /  1015.1hPa WSW 8.2mph /  13.2km/h 14mph /  22.5km/h 77.6% 0.00in /  0mm 229 W/m2
17:14 63.6 °F /  17.6 °C 56.6 °F /  13.7 °C 29.98in /  1015.1hPa South 5.3mph /  8.5km/h 14mph /  22.5km/h 78% 0.00in /  0mm 329 W/m2
17:19 63.9 °F /  17.7 °C 56.8 °F /  13.8 °C 29.99in /  1015.5hPa SW 5.6mph /  9km/h 14mph /  22.5km/h 78% 0.00in /  0mm 606 W/m2
17:24 63.9 °F /  17.7 °C 56.8 °F /  13.8 °C 29.99in /  1015.5hPa SW 5.1mph /  8.2km/h 14mph /  22.5km/h 78% 0.00in /  0mm 376 W/m2
17:29 63.9 °F /  17.7 °C 56.9 °F /  13.8 °C 29.99in /  1015.5hPa South 7.4mph /  11.9km/h 11mph /  17.7km/h 78.2% 0.00in /  0mm 308 W/m2
17:34 63.6 °F /  17.6 °C 56.9 °F /  13.8 °C 29.99in /  1015.5hPa SSW 5.3mph /  8.5km/h 13mph /  20.9km/h 79% 0.00in /  0mm 202 W/m2
17:39 63.3 °F /  17.4 °C 56.8 °F /  13.8 °C 29.99in /  1015.5hPa SSW 4mph /  6.4km/h 13mph /  20.9km/h 79.2% 0.00in /  0mm 158 W/m2
17:44 63.7 °F /  17.6 °C 57 °F /  13.9 °C 29.99in /  1015.5hPa SW 4.6mph /  7.4km/h 11mph /  17.7km/h 79.2% 0.00in /  0mm 178 W/m2
17:49 63.9 °F /  17.7 °C 57.4 °F /  14.1 °C 29.99in /  1015.5hPa SW 5.6mph /  9km/h 12mph /  19.3km/h 79.2% 0.00in /  0mm 243 W/m2
17:54 64 °F /  17.8 °C 57 °F /  13.9 °C 29.99in /  1015.5hPa SW 5mph /  8km/h 10mph /  16.1km/h 78% 0.00in /  0mm 114 W/m2
18:04 64 °F /  17.8 °C 57 °F /  13.9 °C 29.99in /  1015.5hPa SW 5.4mph /  8.7km/h 10mph /  16.1km/h 78% 0.00in /  0mm 123 W/m2
18:09 63.9 °F /  17.7 °C 56.8 °F /  13.8 °C 29.99in /  1015.5hPa WSW 3.2mph /  5.1km/h 11mph /  17.7km/h 78% 0.00in /  0mm 113 W/m2
18:14 63.5 °F /  17.5 °C 56.5 °F /  13.6 °C 29.99in /  1015.5hPa WSW 4.8mph /  7.7km/h 8mph /  12.9km/h 78% 0.00in /  0mm 60 W/m2
18:19 62.9 °F /  17.2 °C 55.7 °F /  13.2 °C 29.99in /  1015.5hPa West 5.4mph /  8.7km/h 9mph /  14.5km/h 77.6% 0.00in /  0mm 40 W/m2
18:24 62.4 °F /  16.9 °C 55.4 °F /  13 °C 29.99in /  1015.5hPa West 3.8mph /  6.1km/h 8mph /  12.9km/h 78% 0.00in /  0mm 58 W/m2
18:29 62.3 °F /  16.8 °C 55.5 °F /  13.1 °C 29.99in /  1015.5hPa West 2.4mph /  3.9km/h 5mph /  8km/h 78.4% 0.00in /  0mm 69 W/m2
18:34 62.5 °F /  16.9 °C 55.8 °F /  13.2 °C 29.99in /  1015.5hPa West 1.8mph /  2.9km/h 4mph /  6.4km/h 79% 0.00in /  0mm 100 W/m2
18:39 62.8 °F /  17.1 °C 56.1 °F /  13.4 °C 30.00in /  1015.8hPa West 1.3mph /  2.1km/h 4mph /  6.4km/h 79% 0.00in /  0mm 107 W/m2
18:44 62.8 °F /  17.1 °C 55.8 °F /  13.2 °C 30.00in /  1015.8hPa West 2mph /  3.2km/h 5mph /  8km/h 78% 0.00in /  0mm 135 W/m2
18:49 63 °F /  17.2 °C 56 °F /  13.3 °C 30.00in /  1015.8hPa WSW 3.1mph /  5km/h 5mph /  8km/h 78% 0.00in /  0mm 113 W/m2
18:53 63.1 °F /  17.3 °C 56.1 °F /  13.4 °C 30.00in /  1015.8hPa SW 4.7mph /  7.6km/h 11mph /  17.7km/h 78% 0.00in /  0mm 111 W/m2
18:59 63 °F /  17.2 °C 56 °F /  13.3 °C 30.00in /  1015.8hPa SW 5.2mph /  8.4km/h 11mph /  17.7km/h 78% 0.00in /  0mm 123 W/m2
19:04 63 °F /  17.2 °C 55.6 °F /  13.1 °C 30.00in /  1015.8hPa SW 7mph /  11.3km/h 11mph /  17.7km/h 77% 0.00in /  0mm 141 W/m2
19:09 62.8 °F /  17.1 °C 55.6 °F /  13.1 °C 30.00in /  1015.8hPa SW 6.4mph /  10.3km/h 11mph /  17.7km/h 77.4% 0.00in /  0mm 139 W/m2
19:14 62.6 °F /  17 °C 55.2 °F /  12.9 °C 30.00in /  1015.8hPa SSW 7.2mph /  11.6km/h 14mph /  22.5km/h 77% 0.00in /  0mm 199 W/m2
19:29 62.3 °F /  16.8 °C 55.2 °F /  12.9 °C 30.01in /  1016.1hPa South 5.2mph /  8.4km/h 11mph /  17.7km/h 78% 0.00in /  0mm 63 W/m2
19:34 62 °F /  16.7 °C 55 °F /  12.8 °C 30.01in /  1016.1hPa SSW 4.8mph /  7.7km/h 9mph /  14.5km/h 78.2% 0.00in /  0mm 79 W/m2
19:39 61.5 °F /  16.4 °C 55 °F /  12.8 °C 30.01in /  1016.1hPa SSW 4.3mph /  6.9km/h 10mph /  16.1km/h 79% 0.00in /  0mm 104 W/m2
19:44 61.3 °F /  16.3 °C 54.9 °F /  12.7 °C 30.01in /  1016.1hPa SSW 4.1mph /  6.6km/h 10mph /  16.1km/h 79.4% 0.00in /  0mm 83 W/m2
19:49 61.1 °F /  16.2 °C 54.8 °F /  12.7 °C 30.01in /  1016.1hPa SW 4.8mph /  7.7km/h 10mph /  16.1km/h 80% 0.00in /  0mm 102 W/m2
19:54 60.7 °F /  15.9 °C 54.6 °F /  12.6 °C 30.01in /  1016.1hPa SW 7.4mph /  11.9km/h 12mph /  19.3km/h 80% 0.00in /  0mm 97 W/m2
19:59 60.5 °F /  15.8 °C 54.4 °F /  12.4 °C 30.02in /  1016.5hPa SW 5.4mph /  8.7km/h 10mph /  16.1km/h 80.2% 0.00in /  0mm 86 W/m2
20:03 60.4 °F /  15.8 °C 54.5 °F /  12.5 °C 30.02in /  1016.5hPa WSW 4mph /  6.4km/h 10mph /  16.1km/h 81% 0.00in /  0mm 70 W/m2
20:09 60.3 °F /  15.7 °C 54.3 °F /  12.4 °C 30.01in /  1016.1hPa SW 5.4mph /  8.7km/h 10mph /  16.1km/h 81% 0.00in /  0mm 63 W/m2
20:14 60.1 °F /  15.6 °C 54.3 °F /  12.4 °C 30.01in /  1016.1hPa SW 6mph /  9.7km/h 10mph /  16.1km/h 81% 0.00in /  0mm 40 W/m2
20:19 59.9 °F /  15.5 °C 54.1 °F /  12.3 °C 30.02in /  1016.5hPa SW 4.9mph /  7.9km/h 10mph /  16.1km/h 81% 0.00in /  0mm 28 W/m2
20:24 59.7 °F /  15.4 °C 54 °F /  12.2 °C 30.02in /  1016.5hPa SW 5.8mph /  9.3km/h 9mph /  14.5km/h 81.2% 0.00in /  0mm 21 W/m2
20:29 59.5 °F /  15.3 °C 53.9 °F /  12.2 °C 30.02in /  1016.5hPa SSW 5.1mph /  8.2km/h 13mph /  20.9km/h 82% 0.00in /  0mm 18 W/m2
20:34 59.4 °F /  15.2 °C 53.8 °F /  12.1 °C 30.02in /  1016.5hPa SSW 2.8mph /  4.5km/h 9mph /  14.5km/h 82% 0.00in /  0mm 14 W/m2
20:39 59.2 °F /  15.1 °C 53.7 °F /  12.1 °C 30.02in /  1016.5hPa SW 4.9mph /  7.9km/h 9mph /  14.5km/h 82.2% 0.00in /  0mm 11 W/m2
20:44 59 °F /  15 °C 53.8 °F /  12.1 °C 30.02in /  1016.5hPa SW 4.2mph /  6.8km/h 8mph /  12.9km/h 83% 0.00in /  0mm 9 W/m2
20:49 58.8 °F /  14.9 °C 53.6 °F /  12 °C 30.03in /  1016.8hPa SSW 3.6mph /  5.8km/h 9mph /  14.5km/h 83% 0.00in /  0mm 7 W/m2
20:54 58.6 °F /  14.8 °C 53.4 °F /  11.9 °C 30.03in /  1016.8hPa SSW 4.9mph /  7.9km/h 8mph /  12.9km/h 83% 0.00in /  0mm 0 W/m2
20:59 58.6 °F /  14.8 °C 53.4 °F /  11.9 °C 30.03in /  1016.8hPa SSW 4.3mph /  6.9km/h 9mph /  14.5km/h 83% 0.00in /  0mm 0 W/m2
21:03 58.5 °F /  14.7 °C 53.2 °F /  11.8 °C 30.03in /  1016.8hPa SW 3.2mph /  5.1km/h 8mph /  12.9km/h 83% 0.00in /  0mm 0 W/m2
21:09 58.5 °F /  14.7 °C 53.2 °F /  11.8 °C 30.03in /  1016.8hPa SW 2.4mph /  3.9km/h 7mph /  11.3km/h 83% 0.00in /  0mm 0 W/m2
21:14 58.3 °F /  14.6 °C 53.1 °F /  11.7 °C 30.03in /  1016.8hPa WSW 3.3mph /  5.3km/h 6mph /  9.7km/h 83% 0.00in /  0mm 0 W/m2
21:19 58.3 °F /  14.6 °C 53.1 °F /  11.7 °C 30.03in /  1016.8hPa SW 3.5mph /  5.6km/h 6mph /  9.7km/h 83% 0.00in /  0mm 0 W/m2
21:24 58.3 °F /  14.6 °C 53.1 °F /  11.7 °C 30.03in /  1016.8hPa SW 2.8mph /  4.5km/h 7mph /  11.3km/h 83% 0.00in /  0mm 0 W/m2
21:29 58.2 °F /  14.6 °C 53 °F /  11.7 °C 30.03in /  1016.8hPa WSW 3mph /  4.8km/h 8mph /  12.9km/h 83% 0.00in /  0mm 0 W/m2
21:34 58.1 °F /  14.5 °C 52.9 °F /  11.6 °C 30.04in /  1017.2hPa WSW 2.5mph /  4km/h 5mph /  8km/h 83% 0.00in /  0mm 0 W/m2
21:39 58.1 °F /  14.5 °C 52.9 °F /  11.6 °C 30.04in /  1017.2hPa SSW 3.5mph /  5.6km/h 7mph /  11.3km/h 83% 0.00in /  0mm 0 W/m2
21:44 58.3 °F /  14.6 °C 53.1 °F /  11.7 °C 30.04in /  1017.2hPa SSW 2.9mph /  4.7km/h 7mph /  11.3km/h 82.8% 0.00in /  0mm 0 W/m2
21:49 58.3 °F /  14.6 °C 52.9 °F /  11.6 °C 30.04in /  1017.2hPa SSW 4.6mph /  7.4km/h 11mph /  17.7km/h 82% 0.00in /  0mm 0 W/m2
21:54 58.2 °F /  14.6 °C 52.8 °F /  11.6 °C 30.05in /  1017.5hPa SSW 3.7mph /  6km/h 9mph /  14.5km/h 82% 0.00in /  0mm 0 W/m2
21:59 58 °F /  14.4 °C 52.6 °F /  11.4 °C 30.05in /  1017.5hPa SSW 2.9mph /  4.7km/h 7mph /  11.3km/h 82% 0.00in /  0mm 0 W/m2
22:04 57.9 °F /  14.4 °C 52.5 °F /  11.4 °C 30.05in /  1017.5hPa SSW 2.4mph /  3.9km/h 6mph /  9.7km/h 82% 0.00in /  0mm 0 W/m2
22:09 57.9 °F /  14.4 °C 52.5 °F /  11.4 °C 30.05in /  1017.5hPa South 2.5mph /  4km/h 6mph /  9.7km/h 82% 0.00in /  0mm 0 W/m2
22:14 57.8 °F /  14.3 °C 52.4 °F /  11.3 °C 30.05in /  1017.5hPa South 1.2mph /  1.9km/h 5mph /  8km/h 82% 0.00in /  0mm 0 W/m2
22:19 57.8 °F /  14.3 °C 52.3 °F /  11.3 °C 30.05in /  1017.5hPa South 2.5mph /  4km/h 4mph /  6.4km/h 82% 0.00in /  0mm 0 W/m2
22:24 57.7 °F /  14.3 °C 52.5 °F /  11.4 °C 30.05in /  1017.5hPa SSW 2.1mph /  3.4km/h 6mph /  9.7km/h 82.4% 0.00in /  0mm 0 W/m2
22:29 57.7 °F /  14.3 °C 52.7 °F /  11.5 °C 30.05in /  1017.5hPa SSW 2.1mph /  3.4km/h 5mph /  8km/h 83% 0.00in /  0mm 0 W/m2
22:34 57.7 °F /  14.3 °C 52.7 °F /  11.5 °C 30.05in /  1017.5hPa SSW 1.8mph /  2.9km/h 5mph /  8km/h 83% 0.00in /  0mm 0 W/m2
22:39 57.6 °F /  14.2 °C 52.5 °F /  11.4 °C 30.05in /  1017.5hPa SSW 1.4mph /  2.3km/h 5mph /  8km/h 83.2% 0.00in /  0mm 0 W/m2
22:44 57.6 °F /  14.2 °C 52.7 °F /  11.5 °C 30.05in /  1017.5hPa SSW 1.5mph /  2.4km/h 3mph /  4.8km/h 84% 0.00in /  0mm 0 W/m2
22:49 57.6 °F /  14.2 °C 52.7 °F /  11.5 °C 30.05in /  1017.5hPa SSW 1.7mph /  2.7km/h 5mph /  8km/h 84% 0.00in /  0mm 0 W/m2
22:54 57.5 °F /  14.2 °C 52.6 °F /  11.4 °C 30.05in /  1017.5hPa SSW 1.2mph /  1.9km/h 3mph /  4.8km/h 84% 0.00in /  0mm 0 W/m2
22:59 57.4 °F /  14.1 °C 52.5 °F /  11.4 °C 30.05in /  1017.5hPa SSW 0.8mph /  1.3km/h 3mph /  4.8km/h 84% 0.00in /  0mm 0 W/m2
23:04 57.3 °F /  14.1 °C 52.8 °F /  11.6 °C 30.05in /  1017.5hPa SSW 0.6mph /  1km/h 2mph /  3.2km/h 85% 0.00in /  0mm 0 W/m2
23:09 57 °F /  13.9 °C 52.5 °F /  11.4 °C 30.05in /  1017.5hPa SSW 0.5mph /  0.8km/h 3mph /  4.8km/h 85% 0.00in /  0mm 0 W/m2
23:14 57 °F /  13.9 °C 52.5 °F /  11.4 °C 30.05in /  1017.5hPa SSW 1mph /  1.6km/h 3mph /  4.8km/h 85% 0.00in /  0mm 0 W/m2
23:19 56.8 °F /  13.8 °C 52.5 °F /  11.4 °C 30.05in /  1017.5hPa SSW 1.6mph /  2.6km/h 3mph /  4.8km/h 85.4% 0.00in /  0mm 0 W/m2
23:24 56.8 °F /  13.8 °C 52.7 °F /  11.5 °C 30.05in /  1017.5hPa SSW 1.3mph /  2.1km/h 3mph /  4.8km/h 86% 0.00in /  0mm 0 W/m2
23:28 56.7 °F /  13.7 °C 52.6 °F /  11.4 °C 30.05in /  1017.5hPa SSW 1.9mph /  3.1km/h 3mph /  4.8km/h 86% 0.00in /  0mm 0 W/m2
23:34 56.7 °F /  13.7 °C 52.5 °F /  11.4 °C 30.06in /  1017.8hPa South 0.5mph /  0.8km/h 4mph /  6.4km/h 86% 0.00in /  0mm 0 W/m2
23:39 56.5 °F /  13.6 °C 52.3 °F /  11.3 °C 30.06in /  1017.8hPa South 2mph /  3.2km/h 4mph /  6.4km/h 86% 0.00in /  0mm 0 W/m2
23:44 56.4 °F /  13.6 °C 52.3 °F /  11.3 °C 30.06in /  1017.8hPa South 3.7mph /  6km/h 7mph /  11.3km/h 86% 0.00in /  0mm 0 W/m2
23:49 56.1 °F /  13.4 °C 52.3 °F /  11.3 °C 30.06in /  1017.8hPa South 4.2mph /  6.8km/h 9mph /  14.5km/h 86.8% 0.00in /  0mm 0 W/m2
23:54 55.9 °F /  13.3 °C 52.2 °F /  11.2 °C 30.06in /  1017.8hPa South 3.6mph /  5.8km/h 7mph /  11.3km/h 87% 0.00in /  0mm 0 W/m2
23:59 55.8 °F /  13.2 °C 52.1 °F /  11.2 °C 30.06in /  1017.8hPa South 4.5mph /  7.2km/h 7mph /  11.3km/h 87% 0.00in /  0mm 0 W/m2
Bath Spa Weather
Compliments of Weather Underground - 2 mb